Time;durP1;ratioP1;P1;durP2;ratioP2;P2;SDS_P1;SDS_P2;PMS_P1;PMS_P2;Temp;Humidity;BMP_temperature;BMP_pressure;BME280_temperature;BME280_humidity;BME280_pressure;Samples;Min_cycle;Max_cycle;Signal;HPM_P1;HPM_P2
2022/09/22 00:00:58;;;;;;;19.13;15.85;;;9.10;99.90;;;;;;2098028;28;20025;-73
2022/09/22 00:02:05;;;;;;;18.70;15.32;;;9.10;99.90;;;;;;2098385;28;20031;-74
2022/09/22 00:03:07;;;;;;;18.45;15.48;;;9.10;99.90;;;;;;2089613;28;20025;-71
2022/09/22 00:04:11;;;;;;;19.02;15.60;;;9.00;99.90;;;;;;2089497;28;20029;-71
2022/09/22 00:05:13;;;;;;;19.77;15.88;;;9.10;99.90;;;;;;2097894;28;20056;-72
2022/09/22 00:06:17;;;;;;;17.48;14.80;;;9.10;99.90;;;;;;2097894;28;20106;-72
2022/09/22 00:07:18;;;;;;;19.60;16.00;;;9.10;99.90;;;;;;2098018;28;20032;-72
2022/09/22 00:08:19;;;;;;;19.08;15.93;;;9.10;99.90;;;;;;2097889;28;20071;-74
2022/09/22 00:09:20;;;;;;;22.70;15.95;;;9.00;99.90;;;;;;2097539;28;20572;-73
2022/09/22 00:10:21;;;;;;;20.60;16.17;;;9.00;99.90;;;;;;2089196;28;20029;-73
2022/09/22 00:11:27;;;;;;;20.42;16.02;;;9.00;99.90;;;;;;2088768;28;20029;-72
2022/09/22 00:12:28;;;;;;;19.25;15.90;;;9.00;99.90;;;;;;2089968;28;20128;-72
2022/09/22 00:13:30;;;;;;;20.27;16.23;;;9.00;99.90;;;;;;2088815;28;20080;-73
2022/09/22 00:14:31;;;;;;;20.75;16.35;;;9.00;99.90;;;;;;2089237;28;20044;-72
2022/09/22 00:15:32;;;;;;;17.85;15.52;;;9.00;99.90;;;;;;2089134;28;20033;-72
2022/09/22 00:16:36;;;;;;;22.67;15.85;;;9.00;99.90;;;;;;2088847;28;20078;-72
2022/09/22 00:17:37;;;;;;;18.58;15.25;;;9.00;99.90;;;;;;2098257;28;20049;-72
2022/09/22 00:18:39;;;;;;;19.88;16.15;;;9.00;99.90;;;;;;2097841;28;20050;-72
2022/09/22 00:19:39;;;;;;;20.17;16.08;;;9.00;99.90;;;;;;2088831;28;20086;-72
2022/09/22 00:20:40;;;;;;;18.48;15.95;;;9.00;99.90;;;;;;2088906;28;20060;-72
2022/09/22 00:21:41;;;;;;;18.98;15.63;;;9.00;99.90;;;;;;2097890;28;20084;-72
2022/09/22 00:22:41;;;;;;;21.15;16.70;;;9.00;99.90;;;;;;2098156;28;20833;-72
2022/09/22 00:23:42;;;;;;;20.42;16.08;;;9.00;99.90;;;;;;2097956;28;20025;-72
2022/09/22 00:24:44;;;;;;;19.27;15.90;;;8.90;99.90;;;;;;2097946;28;20064;-72
2022/09/22 00:25:45;;;;;;;20.38;16.17;;;8.90;99.90;;;;;;2098093;28;20025;-73
2022/09/22 00:26:45;;;;;;;21.30;16.25;;;8.90;99.90;;;;;;2098051;28;20074;-72
2022/09/22 00:27:47;;;;;;;20.40;16.15;;;8.90;99.90;;;;;;2098094;28;20111;-72
2022/09/22 00:28:50;;;;;;;21.17;15.90;;;8.90;99.90;;;;;;2092994;28;20103;-72
2022/09/22 00:29:50;;;;;;;18.85;15.98;;;8.80;99.90;;;;;;2093668;28;20036;-72
2022/09/22 00:30:51;;;;;;;18.02;15.57;;;8.80;99.90;;;;;;2102065;28;20024;-73
2022/09/22 00:31:52;;;;;;;20.50;16.15;;;8.80;99.90;;;;;;2106417;28;20054;-72
2022/09/22 00:32:53;;;;;;;20.30;16.83;;;8.80;99.90;;;;;;2097454;28;20231;-72
2022/09/22 00:33:55;;;;;;;19.83;16.88;;;8.80;99.90;;;;;;2097425;28;20235;-72
2022/09/22 00:34:56;;;;;;;25.58;19.90;;;8.80;99.90;;;;;;2106167;28;20035;-73
2022/09/22 00:35:57;;;;;;;23.75;18.70;;;8.90;99.90;;;;;;2097416;28;20538;-73
2022/09/22 00:36:58;;;;;;;23.08;18.10;;;8.90;99.90;;;;;;2097181;28;20028;-72
2022/09/22 00:37:59;;;;;;;21.88;17.50;;;8.90;99.90;;;;;;2106099;28;20024;-73
2022/09/22 00:38:59;;;;;;;22.48;17.40;;;8.90;99.90;;;;;;2096972;28;20025;-72
2022/09/22 00:40:00;;;;;;;21.75;17.88;;;8.80;99.90;;;;;;2096905;28;20091;-72
2022/09/22 00:41:01;;;;;;;23.27;17.45;;;8.80;99.90;;;;;;2105943;28;20471;-72
2022/09/22 00:42:03;;;;;;;20.38;16.95;;;8.80;99.90;;;;;;2106129;28;20028;-72
2022/09/22 00:43:16;;;;;;;21.98;17.88;;;8.80;99.90;;;;;;2106008;28;20020;-72
2022/09/22 00:44:20;;;;;;;21.50;17.80;;;8.70;99.90;;;;;;2098402;28;20390;-71
2022/09/22 00:45:20;;;;;;;22.35;17.77;;;8.80;99.90;;;;;;2105608;28;20099;-73
2022/09/22 00:46:27;;;;;;;21.58;17.45;;;8.70;99.90;;;;;;2097781;28;20024;-73
2022/09/22 00:47:38;;;;;;;20.88;17.08;;;8.70;99.90;;;;;;2088816;28;20025;-73
2022/09/22 00:48:46;;;;;;;22.60;17.25;;;8.70;99.90;;;;;;2088846;28;20017;-72
2022/09/22 00:50:07;;;;;;;21.10;17.20;;;8.70;99.90;;;;;;2089253;28;20040;-73
2022/09/22 00:51:11;;;;;;;21.38;16.52;;;8.70;99.90;;;;;;2097436;28;20445;-72
2022/09/22 00:52:15;;;;;;;21.27;17.30;;;8.70;99.90;;;;;;2104329;28;20016;-72
2022/09/22 00:53:19;;;;;;;20.67;16.60;;;8.70;99.90;;;;;;2105957;28;20017;-73
2022/09/22 00:54:19;;;;;;;19.73;16.65;;;8.70;99.90;;;;;;2096907;28;20086;-72
2022/09/22 00:55:32;;;;;;;21.88;17.10;;;8.70;99.90;;;;;;2097066;28;20477;-73
2022/09/22 00:56:46;;;;;;;21.98;16.75;;;8.60;99.90;;;;;;2097055;28;20040;-72
2022/09/22 00:57:49;;;;;;;22.40;18.10;;;8.60;99.90;;;;;;2099021;28;20025;-72
2022/09/22 00:58:54;;;;;;;22.40;17.38;;;8.60;99.90;;;;;;2101901;28;20021;-73
2022/09/22 00:59:55;;;;;;;21.60;17.67;;;8.60;99.90;;;;;;2101068;28;20041;-72
2022/09/22 01:00:55;;;;;;;22.27;17.73;;;8.60;99.90;;;;;;2100040;28;20040;-72
2022/09/22 01:01:56;;;;;;;21.17;17.80;;;8.60;99.90;;;;;;2096462;28;20057;-72
2022/09/22 01:02:59;;;;;;;22.77;18.15;;;8.60;99.90;;;;;;2096500;28;20467;-71
2022/09/22 01:04:00;;;;;;;21.75;17.55;;;8.60;99.90;;;;;;2096241;28;20078;-71
2022/09/22 01:05:01;;;;;;;22.02;17.58;;;8.60;99.90;;;;;;2096356;28;20076;-71
2022/09/22 01:06:05;;;;;;;21.00;17.10;;;8.60;99.90;;;;;;2087180;28;20127;-72
2022/09/22 01:07:06;;;;;;;22.27;17.67;;;8.50;99.90;;;;;;2093922;28;20154;-72
2022/09/22 01:08:08;;;;;;;21.77;17.40;;;8.50;99.90;;;;;;2098324;28;20024;-71
2022/09/22 01:09:09;;;;;;;22.00;17.08;;;8.50;99.90;;;;;;2102704;28;20442;-70
2022/09/22 01:10:10;;;;;;;21.70;17.92;;;8.50;99.90;;;;;;2104703;28;20032;-72
2022/09/22 01:11:14;;;;;;;21.85;17.42;;;8.50;99.90;;;;;;2095672;28;20021;-71
2022/09/22 01:12:15;;;;;;;43.25;31.40;;;8.50;99.90;;;;;;2087999;28;20029;-71
2022/09/22 01:13:32;;;;;;;42.40;29.90;;;8.60;99.90;;;;;;2095759;28;20046;-71
2022/09/22 01:14:41;;;;;;;36.22;26.77;;;8.60;99.90;;;;;;2104804;28;20644;-72
2022/09/22 01:16:10;;;;;;;30.67;23.52;;;8.60;99.90;;;;;;2104738;28;20446;-71
2022/09/22 01:17:19;;;;;;;28.08;21.17;;;8.60;99.90;;;;;;2095864;28;20039;-72
2022/09/22 01:18:28;;;;;;;25.02;19.67;;;8.60;99.90;;;;;;2097023;28;20032;-72
2022/09/22 01:19:55;;;;;;;25.00;19.17;;;8.50;99.90;;;;;;2104748;28;20054;-72
2022/09/22 01:21:12;;;;;;;23.45;18.55;;;8.50;99.90;;;;;;2104764;28;20077;-71
2022/09/22 01:22:19;;;;;;;22.95;17.73;;;8.50;99.90;;;;;;2104421;28;20030;-73
2022/09/22 01:23:28;;;;;;;22.85;17.83;;;8.50;99.90;;;;;;2104711;28;20016;-72
2022/09/22 01:25:00;;;;;;;22.50;18.08;;;8.50;99.90;;;;;;2094303;28;20040;-72
2022/09/22 01:26:33;;;;;;;23.20;17.35;;;8.50;99.90;;;;;;2087865;28;20029;-72
2022/09/22 01:28:01;;;;;;;20.05;16.77;;;8.50;99.90;;;;;;2087968;28;20112;-72
2022/09/22 01:29:38;;;;;;;22.15;15.90;;;8.40;99.90;;;;;;2087849;28;20630;-72
2022/09/22 01:30:50;;;;;;;21.30;16.45;;;8.40;99.90;;;;;;2087787;28;20056;-73
2022/09/22 01:32:09;;;;;;;21.67;16.27;;;8.40;99.90;;;;;;2087770;28;20040;-72
2022/09/22 01:33:27;;;;;;;20.45;16.58;;;8.40;99.90;;;;;;2088083;28;20045;-72
2022/09/22 01:34:33;;;;;;;23.05;16.95;;;8.40;99.90;;;;;;2079202;28;20040;-72
2022/09/22 01:36:06;;;;;;;21.05;17.10;;;8.30;99.90;;;;;;2080084;28;20773;-72
2022/09/22 01:37:11;;;;;;;18.45;15.77;;;8.30;99.90;;;;;;2070975;28;20044;-73
2022/09/22 01:38:25;;;;;;;18.73;15.73;;;8.30;99.90;;;;;;2072315;28;20373;-72
2022/09/22 01:39:37;;;;;;;20.05;15.68;;;8.30;99.90;;;;;;2081578;28;20057;-72
2022/09/22 01:40:58;;;;;;;19.75;15.07;;;8.30;99.90;;;;;;2091135;28;20171;-72
2022/09/22 01:42:06;;;;;;;18.83;15.52;;;8.30;99.90;;;;;;2098054;28;20287;-72
2022/09/22 01:43:24;;;;;;;18.77;14.88;;;8.20;99.90;;;;;;2104714;28;20044;-73
2022/09/22 01:44:33;;;;;;;17.55;15.02;;;8.20;99.90;;;;;;2112197;28;20016;-72
2022/09/22 01:45:36;;;;;;;17.60;15.10;;;8.20;99.90;;;;;;2112704;28;20032;-72
2022/09/22 01:46:42;;;;;;;20.80;16.23;;;8.20;99.90;;;;;;2112383;28;20024;-72
2022/09/22 01:47:52;;;;;;;20.00;16.17;;;8.30;99.90;;;;;;2113054;28;20012;-72
2022/09/22 01:48:56;;;;;;;19.25;15.27;;;8.20;99.90;;;;;;2109032;28;20023;-73
2022/09/22 01:50:04;;;;;;;19.02;15.40;;;8.20;99.90;;;;;;2103632;28;20028;-72
2022/09/22 01:51:14;;;;;;;19.13;15.85;;;8.20;99.90;;;;;;2104850;28;20045;-72
2022/09/22 01:52:19;;;;;;;19.85;15.50;;;8.20;99.90;;;;;;2099326;28;20091;-72
2022/09/22 01:53:25;;;;;;;19.70;15.65;;;8.10;99.90;;;;;;2097574;28;20111;-72
2022/09/22 01:54:38;;;;;;;20.73;15.95;;;8.10;99.90;;;;;;2097467;28;20024;-72
2022/09/22 01:55:43;;;;;;;21.13;16.45;;;8.10;99.90;;;;;;2090392;28;20083;-72
2022/09/22 01:56:51;;;;;;;20.63;16.48;;;8.10;99.90;;;;;;2096610;28;20094;-72
2022/09/22 01:58:01;;;;;;;20.65;15.95;;;8.00;99.90;;;;;;2104878;28;20076;-72
2022/09/22 01:59:06;;;;;;;21.75;15.98;;;8.00;99.90;;;;;;2096201;28;20062;-72
2022/09/22 02:00:08;;;;;;;20.33;16.10;;;8.00;99.90;;;;;;2096238;28;20115;-72
2022/09/22 02:01:22;;;;;;;19.92;15.68;;;8.00;99.90;;;;;;2105114;28;20032;-72
2022/09/22 02:02:29;;;;;;;19.63;15.85;;;8.00;99.90;;;;;;2100395;28;20032;-72
2022/09/22 02:03:44;;;;;;;20.83;15.80;;;8.00;99.90;;;;;;2105281;28;20024;-72
2022/09/22 02:04:49;;;;;;;20.38;16.08;;;8.00;99.90;;;;;;2101233;28;20486;-71
2022/09/22 02:05:58;;;;;;;18.50;15.27;;;7.90;99.90;;;;;;2106470;28;20032;-72
2022/09/22 02:07:06;;;;;;;19.30;15.77;;;7.90;99.90;;;;;;2106337;28;20027;-73
2022/09/22 02:08:16;;;;;;;19.25;14.98;;;7.90;99.90;;;;;;2106117;28;20020;-72
2022/09/22 02:09:23;;;;;;;17.25;14.25;;;7.90;99.90;;;;;;2106504;28;20402;-73
2022/09/22 02:10:30;;;;;;;19.27;15.52;;;7.90;99.90;;;;;;2106308;28;20031;-72
2022/09/22 02:11:31;;;;;;;19.42;15.80;;;7.90;99.90;;;;;;2097560;28;20024;-72
2022/09/22 02:12:34;;;;;;;19.20;15.38;;;7.90;99.90;;;;;;2097680;28;20039;-72
2022/09/22 02:13:35;;;;;;;21.58;15.60;;;7.90;99.90;;;;;;2108179;28;20506;-72
2022/09/22 02:14:36;;;;;;;18.05;15.20;;;7.90;99.90;;;;;;2108747;28;20032;-73
2022/09/22 02:16:57;;;;;;;18.75;14.88;;;7.80;99.90;;;;;;2102963;28;20036;-71
2022/09/22 02:18:05;;;;;;;18.17;15.30;;;7.80;99.90;;;;;;2100091;28;20031;-72
2022/09/22 02:19:12;;;;;;;18.67;15.20;;;7.80;99.90;;;;;;2101700;28;20396;-72
2022/09/22 02:20:12;;;;;;;19.48;15.50;;;7.80;99.90;;;;;;2110629;28;20034;-72
2022/09/22 02:21:14;;;;;;;18.05;14.43;;;7.70;99.90;;;;;;2110414;28;20493;-73
2022/09/22 02:22:14;;;;;;;18.60;14.73;;;7.70;99.90;;;;;;2109167;28;20035;-73
2022/09/22 02:23:15;;;;;;;18.20;14.93;;;7.80;99.90;;;;;;2099074;28;20437;-72
2022/09/22 02:24:26;;;;;;;17.48;14.25;;;7.70;99.90;;;;;;2089854;28;20499;-71
2022/09/22 02:25:27;;;;;;;17.10;13.98;;;7.70;99.90;;;;;;2099553;28;20052;-71
2022/09/22 02:26:30;;;;;;;18.45;14.27;;;7.70;99.90;;;;;;2099246;28;20506;-72
2022/09/22 02:27:35;;;;;;;17.23;13.63;;;7.70;99.90;;;;;;2089235;28;20029;-72
2022/09/22 02:28:40;;;;;;;17.90;13.77;;;7.70;99.90;;;;;;2089548;28;20037;-72
2022/09/22 02:29:45;;;;;;;18.75;14.15;;;7.70;99.90;;;;;;2098138;28;20024;-72
2022/09/22 02:30:48;;;;;;;16.58;13.77;;;7.70;99.90;;;;;;2080929;28;20118;-72
2022/09/22 02:31:50;;;;;;;16.42;13.45;;;7.70;99.90;;;;;;2081413;28;20018;-72
2022/09/22 02:32:54;;;;;;;17.20;13.30;;;7.70;99.90;;;;;;2089423;28;20500;-72
2022/09/22 02:33:55;;;;;;;16.27;13.40;;;7.70;99.90;;;;;;2089733;28;20029;-71
2022/09/22 02:34:56;;;;;;;16.08;12.95;;;7.70;99.90;;;;;;2088846;28;20033;-71
2022/09/22 02:36:25;;;;;;;16.05;13.27;;;7.70;99.90;;;;;;2088886;28;20033;-71
2022/09/22 02:37:38;;;;;;;16.80;12.80;;;7.60;99.90;;;;;;2089251;28;20040;-72
2022/09/22 02:38:58;;;;;;;16.48;12.75;;;7.60;99.90;;;;;;2097557;28;20032;-71
2022/09/22 02:40:15;;;;;;;15.20;12.73;;;7.60;99.90;;;;;;2097532;28;20040;-71
2022/09/22 02:41:44;;;;;;;16.08;13.13;;;7.60;99.90;;;;;;2097581;28;20784;-73
2022/09/22 02:43:01;;;;;;;15.57;12.48;;;7.60;99.90;;;;;;2047687;29;20055;-71
2022/09/22 02:44:27;;;;;;;16.65;12.48;;;7.50;99.90;;;;;;2094205;28;20028;-71
2022/09/22 02:45:38;;;;;;;14.27;12.32;;;7.50;99.90;;;;;;2041181;28;20046;-72
2022/09/22 02:46:44;;;;;;;14.90;12.27;;;7.50;99.90;;;;;;2073885;28;20029;-72
2022/09/22 02:47:58;;;;;;;16.73;12.98;;;7.50;99.90;;;;;;2081639;28;20057;-73
2022/09/22 02:49:03;;;;;;;16.88;12.50;;;7.50;99.90;;;;;;2089669;28;20037;-71
2022/09/22 02:50:08;;;;;;;17.75;13.48;;;7.50;99.90;;;;;;2081033;28;20057;-71
2022/09/22 02:51:09;;;;;;;15.25;13.05;;;7.50;99.90;;;;;;2088051;28;20017;-71
2022/09/22 02:52:12;;;;;;;16.33;13.15;;;7.50;99.90;;;;;;2097593;28;20479;-71
2022/09/22 02:53:16;;;;;;;14.60;12.38;;;7.50;99.90;;;;;;2105148;28;20027;-72
2022/09/22 02:54:16;;;;;;;18.42;14.52;;;7.50;99.90;;;;;;2089819;28;20490;-72
2022/09/22 02:55:17;;;;;;;18.98;14.20;;;7.50;99.90;;;;;;2089097;28;20044;-72
2022/09/22 02:56:18;;;;;;;17.48;13.65;;;7.50;99.90;;;;;;2089156;28;20391;-72
2022/09/22 02:57:19;;;;;;;16.10;13.50;;;7.50;99.90;;;;;;2089094;28;20031;-72
2022/09/22 02:58:20;;;;;;;16.27;13.32;;;7.50;99.90;;;;;;2097769;28;20034;-72
2022/09/22 02:59:20;;;;;;;15.68;13.15;;;7.50;99.90;;;;;;2105853;28;20027;-72
2022/09/22 03:00:21;;;;;;;16.90;12.77;;;7.50;99.90;;;;;;2105604;28;20114;-72
2022/09/22 03:01:23;;;;;;;17.30;13.35;;;7.40;99.90;;;;;;2089028;28;20083;-72
2022/09/22 03:02:23;;;;;;;18.15;14.15;;;7.40;99.90;;;;;;2089369;28;20375;-71
2022/09/22 03:03:24;;;;;;;18.58;14.35;;;7.40;99.90;;;;;;2089042;28;20021;-71
2022/09/22 03:04:25;;;;;;;17.33;14.38;;;7.40;99.90;;;;;;2089324;28;20090;-72
2022/09/22 03:05:25;;;;;;;19.80;14.60;;;7.40;99.90;;;;;;2080218;28;20029;-72
2022/09/22 03:06:26;;;;;;;19.60;15.07;;;7.40;99.90;;;;;;2080202;28;20028;-71
2022/09/22 03:07:27;;;;;;;19.98;15.18;;;7.30;99.90;;;;;;2089190;28;20138;-72
2022/09/22 03:08:27;;;;;;;20.00;15.30;;;7.30;99.90;;;;;;2089176;28;20017;-72
2022/09/22 03:09:28;;;;;;;20.13;15.38;;;7.30;99.90;;;;;;2089155;28;20029;-71
2022/09/22 03:10:28;;;;;;;20.63;15.20;;;7.30;99.90;;;;;;2089112;28;20033;-72
2022/09/22 03:11:29;;;;;;;21.13;16.15;;;7.30;99.90;;;;;;2088656;28;20135;-71
2022/09/22 03:12:30;;;;;;;20.35;15.30;;;7.30;99.90;;;;;;2088472;28;20025;-71
2022/09/22 03:13:30;;;;;;;19.13;14.77;;;7.30;99.90;;;;;;2089076;28;20329;-71
2022/09/22 03:14:31;;;;;;;20.15;15.68;;;7.30;99.90;;;;;;2088469;28;20037;-71
2022/09/22 03:15:31;;;;;;;20.00;15.40;;;7.20;99.90;;;;;;2088481;28;20052;-71
2022/09/22 03:16:32;;;;;;;17.98;14.73;;;7.20;99.90;;;;;;2079992;28;20427;-71
2022/09/22 03:17:34;;;;;;;21.63;15.63;;;7.20;99.90;;;;;;2087251;28;20083;-71
2022/09/22 03:18:34;;;;;;;21.00;15.10;;;7.20;99.90;;;;;;2103759;28;20032;-71
2022/09/22 03:19:35;;;;;;;19.65;15.30;;;7.10;99.90;;;;;;2098776;28;20033;-71
2022/09/22 03:20:35;;;;;;;19.50;15.02;;;7.10;99.90;;;;;;2105564;28;20111;-70
2022/09/22 03:21:37;;;;;;;21.35;15.32;;;7.20;99.90;;;;;;2105200;28;20032;-71
2022/09/22 03:22:37;;;;;;;20.67;15.15;;;7.20;99.90;;;;;;2105404;28;20031;-70
2022/09/22 03:23:38;;;;;;;19.27;15.25;;;7.20;99.90;;;;;;2105535;28;20031;-70
2022/09/22 03:24:39;;;;;;;21.60;15.73;;;7.20;99.90;;;;;;2096478;28;20029;-71
2022/09/22 03:25:40;;;;;;;19.20;15.07;;;7.10;99.90;;;;;;2096496;28;20021;-70
2022/09/22 03:26:40;;;;;;;19.40;14.27;;;7.20;99.90;;;;;;2105361;28;20044;-70
2022/09/22 03:27:41;;;;;;;18.92;14.57;;;7.20;99.90;;;;;;2105712;28;20074;-71
2022/09/22 03:28:42;;;;;;;18.27;14.70;;;7.20;99.90;;;;;;2105457;28;20123;-71
2022/09/22 03:29:43;;;;;;;17.38;14.32;;;7.20;99.90;;;;;;2105621;28;20743;-70
2022/09/22 03:30:44;;;;;;;17.65;14.02;;;7.10;99.90;;;;;;2105510;28;20085;-71
2022/09/22 03:31:44;;;;;;;18.55;14.00;;;7.10;99.90;;;;;;2103953;28;20028;-70
2022/09/22 03:32:45;;;;;;;18.92;14.50;;;7.10;99.90;;;;;;2096998;28;20025;-71
2022/09/22 03:33:45;;;;;;;19.45;15.38;;;7.10;99.90;;;;;;2079830;28;20029;-70
2022/09/22 03:34:46;;;;;;;16.30;13.43;;;7.00;99.90;;;;;;2079925;28;20018;-71
2022/09/22 03:35:47;;;;;;;17.65;14.23;;;7.00;99.90;;;;;;2088185;28;20105;-70
2022/09/22 03:36:47;;;;;;;18.25;14.43;;;7.00;99.90;;;;;;2087816;28;20029;-70
2022/09/22 03:37:48;;;;;;;18.52;14.15;;;7.00;99.90;;;;;;2097001;28;20143;-70
2022/09/22 03:38:50;;;;;;;17.92;14.55;;;7.00;99.90;;;;;;2096830;28;20470;-70
2022/09/22 03:39:51;;;;;;;18.00;13.85;;;7.00;99.90;;;;;;2098292;28;20070;-70
2022/09/22 03:40:52;;;;;;;17.50;13.80;;;7.00;99.90;;;;;;2101151;28;20489;-70
2022/09/22 03:41:53;;;;;;;16.55;13.57;;;7.00;99.90;;;;;;2092155;28;20454;-70
2022/09/22 03:42:54;;;;;;;17.48;13.88;;;7.00;99.90;;;;;;2096430;28;20115;-70
2022/09/22 03:43:55;;;;;;;16.08;13.75;;;6.90;99.90;;;;;;2105346;28;20032;-70
2022/09/22 03:44:55;;;;;;;18.70;13.93;;;6.90;99.90;;;;;;2105393;28;20035;-71
2022/09/22 03:46:00;;;;;;;16.77;13.10;;;6.90;99.90;;;;;;2105418;28;20035;-70
2022/09/22 03:47:01;;;;;;;16.83;12.88;;;6.90;99.90;;;;;;2099702;28;20032;-70
2022/09/22 03:48:01;;;;;;;17.25;13.52;;;6.90;99.90;;;;;;2093244;28;20546;-71
2022/09/22 03:49:02;;;;;;;17.65;13.60;;;6.90;99.90;;;;;;2090628;28;20033;-70
2022/09/22 03:50:03;;;;;;;15.93;12.90;;;6.90;99.90;;;;;;2102744;28;20069;-71
2022/09/22 03:51:04;;;;;;;14.95;12.57;;;6.90;99.90;;;;;;2096214;28;20037;-71
2022/09/22 03:52:05;;;;;;;16.23;13.20;;;6.80;99.90;;;;;;2091958;28;20484;-71
2022/09/22 03:53:05;;;;;;;15.45;12.45;;;6.90;99.90;;;;;;2096793;28;20085;-71
2022/09/22 03:54:06;;;;;;;15.98;12.75;;;6.80;99.90;;;;;;2096815;28;20016;-71
2022/09/22 03:55:08;;;;;;;15.38;12.32;;;6.80;99.90;;;;;;2102979;28;20028;-71
2022/09/22 03:56:12;;;;;;;17.45;12.35;;;6.80;99.90;;;;;;2089777;28;20040;-71
2022/09/22 03:57:12;;;;;;;16.45;13.18;;;6.80;99.90;;;;;;2086832;28;20067;-70
2022/09/22 03:58:14;;;;;;;15.13;12.48;;;6.80;99.90;;;;;;2095992;28;20680;-70
2022/09/22 03:59:15;;;;;;;15.52;12.35;;;6.80;99.90;;;;;;2105355;28;20643;-71
2022/09/22 04:00:16;;;;;;;15.90;11.88;;;6.80;99.90;;;;;;2096278;28;20089;-70
2022/09/22 04:01:16;;;;;;;16.30;12.60;;;6.80;99.90;;;;;;2096419;28;20051;-70
2022/09/22 04:02:17;;;;;;;15.98;12.63;;;6.80;99.90;;;;;;2105258;28;20516;-71
2022/09/22 04:03:18;;;;;;;16.75;12.65;;;6.80;99.90;;;;;;2105463;28;20031;-70
2022/09/22 04:04:18;;;;;;;17.95;12.90;;;6.70;99.90;;;;;;2105628;28;20123;-70
2022/09/22 04:05:22;;;;;;;15.18;12.65;;;6.70;99.90;;;;;;2088152;28;20079;-71
2022/09/22 04:06:22;;;;;;;16.27;12.82;;;6.70;99.90;;;;;;2088828;28;20028;-71
2022/09/22 04:07:23;;;;;;;14.82;12.00;;;6.70;99.90;;;;;;2105659;28;20474;-71
2022/09/22 04:08:23;;;;;;;15.88;12.10;;;6.70;99.90;;;;;;2105105;28;20027;-71
2022/09/22 04:09:24;;;;;;;15.52;12.18;;;6.70;99.90;;;;;;2105283;28;20040;-71
2022/09/22 04:10:25;;;;;;;16.38;12.48;;;6.70;99.90;;;;;;2105144;28;20062;-72
2022/09/22 04:11:26;;;;;;;15.15;11.90;;;6.70;99.90;;;;;;2095939;28;20058;-70
2022/09/22 04:12:27;;;;;;;16.40;13.57;;;6.70;99.90;;;;;;2096116;28;20086;-71
2022/09/22 04:13:28;;;;;;;15.48;12.77;;;6.80;99.90;;;;;;2102767;28;20725;-70
2022/09/22 04:14:28;;;;;;;19.02;13.52;;;6.80;99.90;;;;;;2104413;28;20058;-71
2022/09/22 04:15:29;;;;;;;14.40;11.68;;;6.80;99.90;;;;;;2097800;28;20040;-70
2022/09/22 04:16:30;;;;;;;15.93;12.43;;;6.70;99.90;;;;;;2105426;28;20024;-71
2022/09/22 04:17:31;;;;;;;17.92;13.73;;;6.70;99.90;;;;;;2105261;28;20031;-71
2022/09/22 04:18:31;;;;;;;18.25;14.13;;;6.80;99.90;;;;;;2095934;28;20032;-70
2022/09/22 04:19:34;;;;;;;16.85;13.43;;;6.80;99.90;;;;;;2079008;28;20034;-71
2022/09/22 04:20:37;;;;;;;18.15;13.82;;;6.80;99.90;;;;;;2087576;28;20039;-71
2022/09/22 04:21:38;;;;;;;19.08;13.57;;;6.80;99.90;;;;;;2104219;28;20024;-70
2022/09/22 04:22:39;;;;;;;16.08;12.40;;;6.80;99.90;;;;;;2104373;28;20031;-71
2022/09/22 04:23:40;;;;;;;19.02;12.80;;;6.80;99.90;;;;;;2094841;28;20028;-71
2022/09/22 04:24:40;;;;;;;14.52;11.50;;;6.80;99.90;;;;;;2095015;28;20040;-71
2022/09/22 04:25:41;;;;;;;16.02;12.20;;;6.70;99.90;;;;;;2104565;28;20074;-71
2022/09/22 04:26:42;;;;;;;17.02;12.57;;;6.70;99.90;;;;;;2104438;28;20036;-72
2022/09/22 04:27:42;;;;;;;14.50;12.02;;;6.70;99.90;;;;;;2095310;28;20029;-71
2022/09/22 04:28:43;;;;;;;14.63;12.02;;;6.70;99.90;;;;;;2087877;28;20704;-71
2022/09/22 04:29:44;;;;;;;14.88;11.98;;;6.60;99.90;;;;;;2086874;28;20025;-71
2022/09/22 04:30:46;;;;;;;15.95;12.48;;;6.60;99.90;;;;;;2087146;28;20514;-71
2022/09/22 04:31:46;;;;;;;16.13;12.55;;;6.60;99.90;;;;;;2087119;28;20033;-71
2022/09/22 04:32:47;;;;;;;16.05;12.43;;;6.60;99.90;;;;;;2079195;28;20033;-72
2022/09/22 04:33:47;;;;;;;16.55;12.05;;;6.60;99.90;;;;;;2087259;28;20032;-71
2022/09/22 04:34:48;;;;;;;15.60;12.07;;;6.60;99.90;;;;;;2096531;28;20356;-72
2022/09/22 04:35:50;;;;;;;13.95;11.50;;;6.60;99.90;;;;;;2099855;28;20020;-71
2022/09/22 04:36:51;;;;;;;15.23;12.18;;;6.60;99.90;;;;;;2092064;28;20021;-71
2022/09/22 04:37:52;;;;;;;17.90;13.32;;;6.60;99.90;;;;;;2083347;28;20108;-72
2022/09/22 04:38:53;;;;;;;15.40;12.27;;;6.60;99.90;;;;;;2095964;28;20027;-71
2022/09/22 04:39:54;;;;;;;16.77;12.07;;;6.60;99.90;;;;;;2104939;28;20681;-72
2022/09/22 04:40:56;;;;;;;15.73;12.07;;;6.60;99.90;;;;;;2105157;28;20043;-71
2022/09/22 04:41:56;;;;;;;16.05;12.20;;;6.60;99.90;;;;;;2104975;28;20064;-71
2022/09/22 04:42:57;;;;;;;15.88;12.27;;;6.60;99.90;;;;;;2104267;28;20640;-71
2022/09/22 04:43:58;;;;;;;17.20;12.18;;;6.50;99.90;;;;;;2101550;28;20027;-71
2022/09/22 04:45:00;;;;;;;14.23;11.57;;;6.50;99.90;;;;;;2099947;28;20483;-71
2022/09/22 04:46:01;;;;;;;15.50;12.02;;;6.50;99.90;;;;;;2101863;28;20065;-71
2022/09/22 04:47:03;;;;;;;14.07;11.80;;;6.50;99.90;;;;;;2099079;28;20081;-72
2022/09/22 04:48:04;;;;;;;15.18;12.05;;;6.50;99.90;;;;;;2096577;28;20063;-73
2022/09/22 04:49:05;;;;;;;15.75;11.80;;;6.50;99.90;;;;;;2096397;28;20509;-71
2022/09/22 04:50:06;;;;;;;16.63;12.27;;;6.50;99.90;;;;;;2096582;28;20108;-71
2022/09/22 04:51:06;;;;;;;15.85;12.23;;;6.40;99.90;;;;;;2087638;28;20032;-71
2022/09/22 04:52:08;;;;;;;17.40;13.57;;;6.50;99.90;;;;;;2093627;28;20495;-71
2022/09/22 04:53:09;;;;;;;20.15;13.55;;;6.40;99.90;;;;;;2104896;28;20027;-71
2022/09/22 04:54:09;;;;;;;17.63;12.95;;;6.40;99.90;;;;;;2098175;28;20095;-71
2022/09/22 04:55:10;;;;;;;18.60;13.15;;;6.40;99.90;;;;;;2096254;28;20166;-71
2022/09/22 04:56:10;;;;;;;19.83;13.07;;;6.50;99.90;;;;;;2087501;28;20024;-71
2022/09/22 04:57:11;;;;;;;20.02;13.68;;;6.50;99.90;;;;;;2087685;28;20075;-71
2022/09/22 04:58:12;;;;;;;19.80;13.38;;;6.40;99.90;;;;;;2096436;28;20124;-71
2022/09/22 04:59:13;;;;;;;19.40;13.70;;;6.50;99.90;;;;;;2097017;28;20104;-71
2022/09/22 05:00:15;;;;;;;24.58;15.38;;;6.50;99.90;;;;;;2087476;28;20537;-72
2022/09/22 05:01:15;;;;;;;20.17;13.85;;;6.60;99.90;;;;;;2071293;28;20120;-71
2022/09/22 05:02:16;;;;;;;23.77;14.00;;;6.60;99.90;;;;;;2079381;28;20033;-71
2022/09/22 05:03:17;;;;;;;21.48;14.23;;;6.60;99.90;;;;;;2096608;28;20020;-71
2022/09/22 05:04:18;;;;;;;30.38;17.00;;;6.60;99.90;;;;;;2087440;28;20029;-71
2022/09/22 05:05:19;;;;;;;25.33;15.55;;;6.60;99.90;;;;;;2079319;28;20029;-71
2022/09/22 05:06:19;;;;;;;25.48;15.43;;;6.70;99.90;;;;;;2087453;28;20040;-71
2022/09/22 05:07:20;;;;;;;24.25;14.75;;;6.70;99.90;;;;;;2087436;28;20376;-71
2022/09/22 05:08:21;;;;;;;25.80;14.80;;;6.70;99.90;;;;;;2087185;28;20538;-70
2022/09/22 05:09:21;;;;;;;24.02;15.07;;;6.70;99.90;;;;;;2096289;28;20111;-72
2022/09/22 05:10:24;;;;;;;23.33;15.07;;;6.70;99.90;;;;;;2095486;28;20113;-71
2022/09/22 05:11:24;;;;;;;23.23;15.18;;;6.70;99.90;;;;;;2079338;28;20029;-71
2022/09/22 05:12:27;;;;;;;25.05;16.25;;;6.70;99.90;;;;;;2095610;28;20438;-72
2022/09/22 05:13:29;;;;;;;25.90;16.15;;;6.70;99.90;;;;;;2104736;28;20127;-71
2022/09/22 05:14:30;;;;;;;27.73;16.70;;;6.70;99.90;;;;;;2104494;28;20035;-71
2022/09/22 05:15:33;;;;;;;28.92;17.08;;;6.70;99.90;;;;;;2104561;28;20024;-71
2022/09/22 05:16:34;;;;;;;28.92;17.27;;;6.70;99.90;;;;;;2104833;28;20023;-71
2022/09/22 05:17:35;;;;;;;26.08;16.40;;;6.70;99.90;;;;;;2104525;28;20043;-70
2022/09/22 05:18:35;;;;;;;29.85;16.88;;;6.80;99.90;;;;;;2086408;28;20472;-70
2022/09/22 05:19:36;;;;;;;29.15;16.75;;;6.70;99.90;;;;;;2083256;28;20057;-70
2022/09/22 05:20:38;;;;;;;28.65;16.63;;;6.70;99.90;;;;;;2084163;28;20044;-72
2022/09/22 05:21:39;;;;;;;30.10;17.15;;;6.80;99.90;;;;;;2081797;28;20503;-71
2022/09/22 05:22:40;;;;;;;30.80;17.05;;;6.70;99.90;;;;;;2093180;28;20016;-70
2022/09/22 05:23:40;;;;;;;29.15;16.70;;;6.80;99.90;;;;;;2094379;28;20021;-71
2022/09/22 05:24:41;;;;;;;26.77;16.70;;;6.70;99.90;;;;;;2093823;28;20033;-70
2022/09/22 05:25:43;;;;;;;28.58;16.02;;;6.80;99.90;;;;;;2095594;28;20533;-70
2022/09/22 05:26:43;;;;;;;31.95;16.23;;;6.80;99.90;;;;;;2086978;28;20056;-70
2022/09/22 05:27:54;;;;;;;28.23;16.35;;;6.80;99.90;;;;;;2087287;28;20024;-71
2022/09/22 05:28:56;;;;;;;;;;;6.80;99.90;;;;;;2096730;28;20518;-71
2022/09/22 05:29:56;;;;;;;25.98;15.50;;;6.80;99.90;;;;;;2096250;28;20512;-70
2022/09/22 05:30:57;;;;;;;26.52;15.88;;;6.80;99.90;;;;;;2096180;28;20661;-71